sensor_id;sensor_type;location;lat;lon;timestamp;temperature;humidity
9486;DHT22;4781;48.776;9.200;2023-02-26T00:02:00;0.40;99.90
9486;DHT22;4781;48.776;9.200;2023-02-26T00:04:36;0.40;99.90
9486;DHT22;4781;48.776;9.200;2023-02-26T00:07:00;0.40;99.90
9486;DHT22;4781;48.776;9.200;2023-02-26T00:09:30;0.40;99.90
9486;DHT22;4781;48.776;9.200;2023-02-26T00:12:01;0.40;99.90
9486;DHT22;4781;48.776;9.200;2023-02-26T00:14:29;0.30;99.90
9486;DHT22;4781;48.776;9.200;2023-02-26T00:17:13;0.30;99.90
9486;DHT22;4781;48.776;9.200;2023-02-26T00:19:48;0.30;99.90
9486;DHT22;4781;48.776;9.200;2023-02-26T00:22:13;0.30;99.90
9486;DHT22;4781;48.776;9.200;2023-02-26T00:24:42;0.20;99.90
9486;DHT22;4781;48.776;9.200;2023-02-26T00:27:12;0.20;99.90
9486;DHT22;4781;48.776;9.200;2023-02-26T00:29:40;0.20;99.90
9486;DHT22;4781;48.776;9.200;2023-02-26T00:32:09;0.20;99.90
9486;DHT22;4781;48.776;9.200;2023-02-26T00:34:38;0.10;99.90
9486;DHT22;4781;48.776;9.200;2023-02-26T00:37:26;0.10;99.90
9486;DHT22;4781;48.776;9.200;2023-02-26T00:40:02;0.10;99.90
9486;DHT22;4781;48.776;9.200;2023-02-26T00:42:32;0.10;99.90
9486;DHT22;4781;48.776;9.200;2023-02-26T00:45:01;0.10;99.90
9486;DHT22;4781;48.776;9.200;2023-02-26T00:50:23;0.00;99.90
9486;DHT22;4781;48.776;9.200;2023-02-26T00:53:15;0.00;99.90
9486;DHT22;4781;48.776;9.200;2023-02-26T00:55:49;-0.10;99.90
9486;DHT22;4781;48.776;9.200;2023-02-26T00:58:17;-0.10;99.90
9486;DHT22;4781;48.776;9.200;2023-02-26T01:00:46;0.00;99.90
9486;DHT22;4781;48.776;9.200;2023-02-26T01:03:20;-0.10;99.90
9486;DHT22;4781;48.776;9.200;2023-02-26T01:05:48;-0.10;99.90
9486;DHT22;4781;48.776;9.200;2023-02-26T01:08:30;-0.10;99.90
9486;DHT22;4781;48.776;9.200;2023-02-26T01:10:58;-0.10;99.90
9486;DHT22;4781;48.776;9.200;2023-02-26T01:13:29;-0.10;99.90
9486;DHT22;4781;48.776;9.200;2023-02-26T01:16:04;-0.20;99.90
9486;DHT22;4781;48.776;9.200;2023-02-26T01:18:37;-0.20;99.90
9486;DHT22;4781;48.776;9.200;2023-02-26T01:21:16;-0.20;99.90
9486;DHT22;4781;48.776;9.200;2023-02-26T01:23:48;-0.20;99.90
9486;DHT22;4781;48.776;9.200;2023-02-26T01:26:23;-0.30;99.90
9486;DHT22;4781;48.776;9.200;2023-02-26T01:28:55;-0.30;99.90
9486;DHT22;4781;48.776;9.200;2023-02-26T01:31:48;-0.30;99.90
9486;DHT22;4781;48.776;9.200;2023-02-26T01:34:43;-0.30;99.90
9486;DHT22;4781;48.776;9.200;2023-02-26T01:37:20;-0.30;99.90
9486;DHT22;4781;48.776;9.200;2023-02-26T01:40:15;-0.40;99.90
9486;DHT22;4781;48.776;9.200;2023-02-26T01:42:43;-0.40;99.90
9486;DHT22;4781;48.776;9.200;2023-02-26T01:45:19;-0.50;99.90
9486;DHT22;4781;48.776;9.200;2023-02-26T01:47:55;-0.50;99.90
9486;DHT22;4781;48.776;9.200;2023-02-26T01:50:39;-0.50;99.90
9486;DHT22;4781;48.776;9.200;2023-02-26T01:53:20;-0.50;99.90
9486;DHT22;4781;48.776;9.200;2023-02-26T01:55:59;-0.60;99.90
9486;DHT22;4781;48.776;9.200;2023-02-26T01:58:33;-0.60;99.90
9486;DHT22;4781;48.776;9.200;2023-02-26T02:01:03;-0.60;99.90
9486;DHT22;4781;48.776;9.200;2023-02-26T02:03:36;-0.70;99.90
9486;DHT22;4781;48.776;9.200;2023-02-26T02:06:15;-0.70;99.90
9486;DHT22;4781;48.776;9.200;2023-02-26T02:08:46;-0.80;99.90
9486;DHT22;4781;48.776;9.200;2023-02-26T02:11:14;-0.80;99.90
9486;DHT22;4781;48.776;9.200;2023-02-26T02:14:11;-0.80;99.90
9486;DHT22;4781;48.776;9.200;2023-02-26T02:22:41;-0.90;99.90
9486;DHT22;4781;48.776;9.200;2023-02-26T02:25:34;-0.90;99.90
9486;DHT22;4781;48.776;9.200;2023-02-26T02:31:35;-1.00;99.90
9486;DHT22;4781;48.776;9.200;2023-02-26T02:34:22;-1.00;99.90
9486;DHT22;4781;48.776;9.200;2023-02-26T02:37:13;-1.00;99.90
9486;DHT22;4781;48.776;9.200;2023-02-26T02:40:06;-1.10;99.90
9486;DHT22;4781;48.776;9.200;2023-02-26T02:45:27;-1.20;99.90
9486;DHT22;4781;48.776;9.200;2023-02-26T02:48:17;-1.20;99.90
9486;DHT22;4781;48.776;9.200;2023-02-26T02:50:50;-1.20;99.90
9486;DHT22;4781;48.776;9.200;2023-02-26T02:53:33;-1.20;99.90
9486;DHT22;4781;48.776;9.200;2023-02-26T02:56:15;-1.20;99.90
9486;DHT22;4781;48.776;9.200;2023-02-26T02:58:53;-1.30;99.90
9486;DHT22;4781;48.776;9.200;2023-02-26T03:01:24;-1.30;99.90
9486;DHT22;4781;48.776;9.200;2023-02-26T03:04:01;-1.30;99.90
9486;DHT22;4781;48.776;9.200;2023-02-26T03:06:34;-1.30;99.90
9486;DHT22;4781;48.776;9.200;2023-02-26T03:09:05;-1.30;99.90
9486;DHT22;4781;48.776;9.200;2023-02-26T03:11:37;-1.40;99.90
9486;DHT22;4781;48.776;9.200;2023-02-26T03:14:05;-1.40;99.90
9486;DHT22;4781;48.776;9.200;2023-02-26T03:20:05;-1.40;99.90
9486;DHT22;4781;48.776;9.200;2023-02-26T03:26:02;-1.50;99.90
9486;DHT22;4781;48.776;9.200;2023-02-26T03:28:40;-1.50;99.90
9486;DHT22;4781;48.776;9.200;2023-02-26T03:31:14;-1.50;99.90
9486;DHT22;4781;48.776;9.200;2023-02-26T03:34:02;-1.50;99.90
9486;DHT22;4781;48.776;9.200;2023-02-26T03:36:44;-1.50;99.90
9486;DHT22;4781;48.776;9.200;2023-02-26T03:39:33;-1.50;99.90
9486;DHT22;4781;48.776;9.200;2023-02-26T03:42:10;-1.50;99.90
9486;DHT22;4781;48.776;9.200;2023-02-26T03:45:29;-1.50;99.90
9486;DHT22;4781;48.776;9.200;2023-02-26T03:47:50;-1.50;99.90
9486;DHT22;4781;48.776;9.200;2023-02-26T03:50:43;-1.50;99.90
9486;DHT22;4781;48.776;9.200;2023-02-26T03:53:16;-1.60;99.90
9486;DHT22;4781;48.776;9.200;2023-02-26T03:56:05;-1.50;99.90
9486;DHT22;4781;48.776;9.200;2023-02-26T03:58:47;-1.60;99.90
9486;DHT22;4781;48.776;9.200;2023-02-26T04:01:25;-1.60;99.90
9486;DHT22;4781;48.776;9.200;2023-02-26T04:04:00;-1.60;99.90
9486;DHT22;4781;48.776;9.200;2023-02-26T04:06:34;-1.60;99.90
9486;DHT22;4781;48.776;9.200;2023-02-26T04:09:04;-1.70;99.90
9486;DHT22;4781;48.776;9.200;2023-02-26T04:11:38;-1.70;99.90
9486;DHT22;4781;48.776;9.200;2023-02-26T04:14:06;-1.70;99.90
9486;DHT22;4781;48.776;9.200;2023-02-26T04:16:35;-1.80;99.90
9486;DHT22;4781;48.776;9.200;2023-02-26T04:19:05;-1.80;99.90
9486;DHT22;4781;48.776;9.200;2023-02-26T04:21:33;-1.80;99.90
9486;DHT22;4781;48.776;9.200;2023-02-26T04:24:02;-1.90;99.90
9486;DHT22;4781;48.776;9.200;2023-02-26T04:26:31;-1.90;99.90
9486;DHT22;4781;48.776;9.200;2023-02-26T04:29:01;-1.90;99.90
9486;DHT22;4781;48.776;9.200;2023-02-26T04:31:29;-2.00;99.90
9486;DHT22;4781;48.776;9.200;2023-02-26T04:33:57;-2.00;99.90
9486;DHT22;4781;48.776;9.200;2023-02-26T04:36:26;-2.10;99.90
9486;DHT22;4781;48.776;9.200;2023-02-26T04:38:55;-2.10;99.90
9486;DHT22;4781;48.776;9.200;2023-02-26T04:41:23;-2.10;99.90
9486;DHT22;4781;48.776;9.200;2023-02-26T04:43:51;-2.10;99.90
9486;DHT22;4781;48.776;9.200;2023-02-26T04:46:21;-2.10;99.90
9486;DHT22;4781;48.776;9.200;2023-02-26T04:48:50;-2.10;99.90
9486;DHT22;4781;48.776;9.200;2023-02-26T04:51:18;-2.10;99.90
9486;DHT22;4781;48.776;9.200;2023-02-26T04:53:48;-2.20;99.90
9486;DHT22;4781;48.776;9.200;2023-02-26T04:56:17;-2.20;99.90
9486;DHT22;4781;48.776;9.200;2023-02-26T04:58:45;-2.20;99.90
9486;DHT22;4781;48.776;9.200;2023-02-26T05:01:13;-2.10;99.90
9486;DHT22;4781;48.776;9.200;2023-02-26T05:03:44;-2.10;99.90
9486;DHT22;4781;48.776;9.200;2023-02-26T05:06:12;-2.10;99.90
9486;DHT22;4781;48.776;9.200;2023-02-26T05:08:40;-2.10;99.90
9486;DHT22;4781;48.776;9.200;2023-02-26T05:11:10;-2.10;99.90
9486;DHT22;4781;48.776;9.200;2023-02-26T05:13:39;-2.10;99.90
9486;DHT22;4781;48.776;9.200;2023-02-26T05:16:08;-2.10;99.90
9486;DHT22;4781;48.776;9.200;2023-02-26T05:18:36;-2.10;99.90
9486;DHT22;4781;48.776;9.200;2023-02-26T05:21:09;-2.10;99.90
9486;DHT22;4781;48.776;9.200;2023-02-26T05:23:34;-2.10;99.90
9486;DHT22;4781;48.776;9.200;2023-02-26T05:26:03;-2.20;99.90
9486;DHT22;4781;48.776;9.200;2023-02-26T05:28:31;-2.20;99.90
9486;DHT22;4781;48.776;9.200;2023-02-26T05:31:00;-2.20;99.90
9486;DHT22;4781;48.776;9.200;2023-02-26T05:33:30;-2.20;99.90
9486;DHT22;4781;48.776;9.200;2023-02-26T05:35:58;-2.30;99.90
9486;DHT22;4781;48.776;9.200;2023-02-26T05:38:26;-2.30;99.90
9486;DHT22;4781;48.776;9.200;2023-02-26T05:40:58;-2.20;99.90
9486;DHT22;4781;48.776;9.200;2023-02-26T05:43:27;-2.30;99.90
9486;DHT22;4781;48.776;9.200;2023-02-26T05:45:55;-2.30;99.90
9486;DHT22;4781;48.776;9.200;2023-02-26T05:48:24;-2.30;99.90
9486;DHT22;4781;48.776;9.200;2023-02-26T05:50:52;-2.30;99.90
9486;DHT22;4781;48.776;9.200;2023-02-26T05:53:21;-2.40;99.90
9486;DHT22;4781;48.776;9.200;2023-02-26T05:55:49;-2.30;99.90
9486;DHT22;4781;48.776;9.200;2023-02-26T05:58:19;-2.40;99.90
9486;DHT22;4781;48.776;9.200;2023-02-26T06:00:48;-2.40;99.90
9486;DHT22;4781;48.776;9.200;2023-02-26T06:03:16;-2.40;99.90
9486;DHT22;4781;48.776;9.200;2023-02-26T06:05:49;-2.40;99.90
9486;DHT22;4781;48.776;9.200;2023-02-26T06:08:18;-2.30;99.90
9486;DHT22;4781;48.776;9.200;2023-02-26T06:10:46;-2.40;99.90
9486;DHT22;4781;48.776;9.200;2023-02-26T06:13:15;-2.40;99.90
9486;DHT22;4781;48.776;9.200;2023-02-26T06:15:43;-2.40;99.90
9486;DHT22;4781;48.776;9.200;2023-02-26T06:18:11;-2.50;99.90
9486;DHT22;4781;48.776;9.200;2023-02-26T06:20:40;-2.40;99.90
9486;DHT22;4781;48.776;9.200;2023-02-26T06:23:08;-2.50;99.90
9486;DHT22;4781;48.776;9.200;2023-02-26T06:25:36;-2.40;99.90
9486;DHT22;4781;48.776;9.200;2023-02-26T06:28:05;-2.40;99.90
9486;DHT22;4781;48.776;9.200;2023-02-26T06:30:34;-2.40;99.90
9486;DHT22;4781;48.776;9.200;2023-02-26T06:33:02;-2.50;99.90
9486;DHT22;4781;48.776;9.200;2023-02-26T06:35:31;-2.50;99.90
9486;DHT22;4781;48.776;9.200;2023-02-26T06:38:07;-2.50;99.90
9486;DHT22;4781;48.776;9.200;2023-02-26T06:40:32;-2.40;99.90
9486;DHT22;4781;48.776;9.200;2023-02-26T06:43:00;-2.40;99.90
9486;DHT22;4781;48.776;9.200;2023-02-26T06:45:29;-2.30;99.90
9486;DHT22;4781;48.776;9.200;2023-02-26T06:47:57;-2.30;99.90
9486;DHT22;4781;48.776;9.200;2023-02-26T06:50:25;-2.30;99.90
9486;DHT22;4781;48.776;9.200;2023-02-26T06:52:54;-2.30;99.90
9486;DHT22;4781;48.776;9.200;2023-02-26T06:55:22;-2.20;99.90
9486;DHT22;4781;48.776;9.200;2023-02-26T06:57:54;-2.20;99.90
9486;DHT22;4781;48.776;9.200;2023-02-26T07:00:24;-2.20;99.90
9486;DHT22;4781;48.776;9.200;2023-02-26T07:02:52;-2.10;99.90
9486;DHT22;4781;48.776;9.200;2023-02-26T07:05:21;-2.10;99.90
9486;DHT22;4781;48.776;9.200;2023-02-26T07:07:49;-2.10;99.90
9486;DHT22;4781;48.776;9.200;2023-02-26T07:10:18;-2.00;99.90
9486;DHT22;4781;48.776;9.200;2023-02-26T07:12:47;-2.00;99.90
9486;DHT22;4781;48.776;9.200;2023-02-26T07:15:18;-2.00;99.90
9486;DHT22;4781;48.776;9.200;2023-02-26T07:17:47;-1.90;99.90
9486;DHT22;4781;48.776;9.200;2023-02-26T07:20:15;-1.80;99.90
9486;DHT22;4781;48.776;9.200;2023-02-26T07:22:45;-1.80;99.90
9486;DHT22;4781;48.776;9.200;2023-02-26T07:25:14;-1.70;99.90
9486;DHT22;4781;48.776;9.200;2023-02-26T07:27:42;-1.70;99.90
9486;DHT22;4781;48.776;9.200;2023-02-26T07:30:12;-1.60;99.90
9486;DHT22;4781;48.776;9.200;2023-02-26T07:32:41;-1.50;99.90
9486;DHT22;4781;48.776;9.200;2023-02-26T07:35:10;-1.40;99.90
9486;DHT22;4781;48.776;9.200;2023-02-26T07:37:38;-1.30;99.90
9486;DHT22;4781;48.776;9.200;2023-02-26T07:40:07;-1.20;99.90
9486;DHT22;4781;48.776;9.200;2023-02-26T07:42:36;-1.10;99.90
9486;DHT22;4781;48.776;9.200;2023-02-26T07:45:05;-1.00;99.90
9486;DHT22;4781;48.776;9.200;2023-02-26T07:47:33;-1.00;99.90
9486;DHT22;4781;48.776;9.200;2023-02-26T07:50:02;-1.00;99.90
9486;DHT22;4781;48.776;9.200;2023-02-26T07:52:31;-0.90;99.90
9486;DHT22;4781;48.776;9.200;2023-02-26T07:54:59;-0.90;99.90
9486;DHT22;4781;48.776;9.200;2023-02-26T07:57:27;-0.90;99.90
9486;DHT22;4781;48.776;9.200;2023-02-26T07:59:56;-0.90;99.90
9486;DHT22;4781;48.776;9.200;2023-02-26T08:02:24;-0.90;99.90
9486;DHT22;4781;48.776;9.200;2023-02-26T08:04:52;-0.90;99.90
9486;DHT22;4781;48.776;9.200;2023-02-26T08:07:21;-1.00;99.90
9486;DHT22;4781;48.776;9.200;2023-02-26T08:09:49;-0.90;99.90
9486;DHT22;4781;48.776;9.200;2023-02-26T08:12:18;-0.80;99.90
9486;DHT22;4781;48.776;9.200;2023-02-26T08:14:46;-0.70;99.90
9486;DHT22;4781;48.776;9.200;2023-02-26T08:17:14;-0.60;99.90
9486;DHT22;4781;48.776;9.200;2023-02-26T08:19:44;-0.50;99.90
9486;DHT22;4781;48.776;9.200;2023-02-26T08:22:16;-0.40;99.90
9486;DHT22;4781;48.776;9.200;2023-02-26T08:24:45;-0.20;99.90
9486;DHT22;4781;48.776;9.200;2023-02-26T08:27:13;0.00;99.90
9486;DHT22;4781;48.776;9.200;2023-02-26T08:29:46;0.00;99.90
9486;DHT22;4781;48.776;9.200;2023-02-26T08:32:17;0.00;99.90
9486;DHT22;4781;48.776;9.200;2023-02-26T08:34:48;0.00;99.90
9486;DHT22;4781;48.776;9.200;2023-02-26T08:37:16;0.00;99.90
9486;DHT22;4781;48.776;9.200;2023-02-26T08:39:46;0.00;99.90
9486;DHT22;4781;48.776;9.200;2023-02-26T08:42:15;0.00;99.90
9486;DHT22;4781;48.776;9.200;2023-02-26T08:44:45;0.00;99.90
9486;DHT22;4781;48.776;9.200;2023-02-26T08:47:14;-0.10;99.90
9486;DHT22;4781;48.776;9.200;2023-02-26T08:49:43;-0.20;99.90
9486;DHT22;4781;48.776;9.200;2023-02-26T08:52:11;-0.20;99.90
9486;DHT22;4781;48.776;9.200;2023-02-26T08:54:39;-0.10;99.90
9486;DHT22;4781;48.776;9.200;2023-02-26T08:57:08;-0.10;99.90
9486;DHT22;4781;48.776;9.200;2023-02-26T08:59:39;-0.10;99.90
9486;DHT22;4781;48.776;9.200;2023-02-26T09:02:10;-0.10;99.90
9486;DHT22;4781;48.776;9.200;2023-02-26T09:04:44;-0.20;99.90
9486;DHT22;4781;48.776;9.200;2023-02-26T09:07:12;-0.30;99.90
9486;DHT22;4781;48.776;9.200;2023-02-26T09:09:46;-0.40;99.90
9486;DHT22;4781;48.776;9.200;2023-02-26T09:12:14;-0.40;99.90
9486;DHT22;4781;48.776;9.200;2023-02-26T09:14:42;-0.40;99.90
9486;DHT22;4781;48.776;9.200;2023-02-26T09:17:10;-0.30;99.90
9486;DHT22;4781;48.776;9.200;2023-02-26T09:19:39;-0.30;99.90
9486;DHT22;4781;48.776;9.200;2023-02-26T09:22:08;-0.30;99.90
9486;DHT22;4781;48.776;9.200;2023-02-26T09:24:36;-0.20;99.90
9486;DHT22;4781;48.776;9.200;2023-02-26T09:27:05;-0.20;99.90
9486;DHT22;4781;48.776;9.200;2023-02-26T09:29:33;-0.20;99.90
9486;DHT22;4781;48.776;9.200;2023-02-26T09:32:02;-0.20;99.90
9486;DHT22;4781;48.776;9.200;2023-02-26T09:34:32;-0.10;99.90
9486;DHT22;4781;48.776;9.200;2023-02-26T09:37:05;-0.10;99.90
9486;DHT22;4781;48.776;9.200;2023-02-26T09:39:35;0.00;99.90
9486;DHT22;4781;48.776;9.200;2023-02-26T09:42:23;-0.10;99.90
9486;DHT22;4781;48.776;9.200;2023-02-26T09:44:55;-0.10;99.90
9486;DHT22;4781;48.776;9.200;2023-02-26T09:47:33;-0.10;99.90
9486;DHT22;4781;48.776;9.200;2023-02-26T09:52:44;-0.20;99.90
9486;DHT22;4781;48.776;9.200;2023-02-26T09:55:29;-0.10;99.90
9486;DHT22;4781;48.776;9.200;2023-02-26T09:58:11;-0.10;99.90
9486;DHT22;4781;48.776;9.200;2023-02-26T10:03:49;-0.10;99.90
9486;DHT22;4781;48.776;9.200;2023-02-26T10:06:34;-0.10;99.90
9486;DHT22;4781;48.776;9.200;2023-02-26T10:09:21;-0.10;99.90
9486;DHT22;4781;48.776;9.200;2023-02-26T10:12:16;-0.10;99.90
9486;DHT22;4781;48.776;9.200;2023-02-26T10:14:51;0.00;99.90
9486;DHT22;4781;48.776;9.200;2023-02-26T10:21:06;0.00;99.90
9486;DHT22;4781;48.776;9.200;2023-02-26T10:23:49;0.00;99.90
9486;DHT22;4781;48.776;9.200;2023-02-26T10:26:25;0.00;99.90
9486;DHT22;4781;48.776;9.200;2023-02-26T10:29:23;0.00;99.90
9486;DHT22;4781;48.776;9.200;2023-02-26T10:32:27;0.00;99.90
9486;DHT22;4781;48.776;9.200;2023-02-26T10:35:13;0.00;99.90
9486;DHT22;4781;48.776;9.200;2023-02-26T10:37:48;0.00;99.90
9486;DHT22;4781;48.776;9.200;2023-02-26T10:40:43;0.00;99.90
9486;DHT22;4781;48.776;9.200;2023-02-26T10:43:26;0.00;99.90
9486;DHT22;4781;48.776;9.200;2023-02-26T10:51:50;0.10;99.90
9486;DHT22;4781;48.776;9.200;2023-02-26T10:54:34;0.20;99.90
9486;DHT22;4781;48.776;9.200;2023-02-26T10:57:09;0.20;99.90
9486;DHT22;4781;48.776;9.200;2023-02-26T10:59:38;0.20;99.90
9486;DHT22;4781;48.776;9.200;2023-02-26T11:02:17;0.20;99.90
9486;DHT22;4781;48.776;9.200;2023-02-26T11:04:45;0.20;99.90
9486;DHT22;4781;48.776;9.200;2023-02-26T11:07:13;0.30;99.90
9486;DHT22;4781;48.776;9.200;2023-02-26T11:09:44;0.30;99.90
9486;DHT22;4781;48.776;9.200;2023-02-26T11:12:14;0.30;99.90
9486;DHT22;4781;48.776;9.200;2023-02-26T11:14:47;0.30;99.90
9486;DHT22;4781;48.776;9.200;2023-02-26T11:17:25;0.40;99.90
9486;DHT22;4781;48.776;9.200;2023-02-26T11:20:04;0.40;99.90
9486;DHT22;4781;48.776;9.200;2023-02-26T11:22:36;0.50;99.90
9486;DHT22;4781;48.776;9.200;2023-02-26T11:25:06;0.60;99.90
9486;DHT22;4781;48.776;9.200;2023-02-26T11:27:42;0.60;99.90
9486;DHT22;4781;48.776;9.200;2023-02-26T11:30:16;0.60;99.90
9486;DHT22;4781;48.776;9.200;2023-02-26T11:32:51;0.60;99.90
9486;DHT22;4781;48.776;9.200;2023-02-26T11:35:22;0.60;99.90
9486;DHT22;4781;48.776;9.200;2023-02-26T11:37:54;0.60;99.90
9486;DHT22;4781;48.776;9.200;2023-02-26T11:40:39;0.50;99.90
9486;DHT22;4781;48.776;9.200;2023-02-26T11:43:19;0.50;99.90
9486;DHT22;4781;48.776;9.200;2023-02-26T11:45:51;0.50;99.90
9486;DHT22;4781;48.776;9.200;2023-02-26T11:48:21;0.60;99.90
9486;DHT22;4781;48.776;9.200;2023-02-26T11:50:58;0.60;99.90
9486;DHT22;4781;48.776;9.200;2023-02-26T11:53:41;0.60;99.90
9486;DHT22;4781;48.776;9.200;2023-02-26T11:56:14;0.60;99.90
9486;DHT22;4781;48.776;9.200;2023-02-26T11:59:05;0.60;99.90
9486;DHT22;4781;48.776;9.200;2023-02-26T12:01:47;0.60;99.90
9486;DHT22;4781;48.776;9.200;2023-02-26T12:04:22;0.60;99.90
9486;DHT22;4781;48.776;9.200;2023-02-26T12:06:54;0.60;99.90
9486;DHT22;4781;48.776;9.200;2023-02-26T12:09:24;0.60;99.90
9486;DHT22;4781;48.776;9.200;2023-02-26T12:15:08;0.60;99.90
9486;DHT22;4781;48.776;9.200;2023-02-26T12:27:02;0.90;99.90
9486;DHT22;4781;48.776;9.200;2023-02-26T12:32:43;0.80;99.90
9486;DHT22;4781;48.776;9.200;2023-02-26T12:35:21;0.80;99.90
9486;DHT22;4781;48.776;9.200;2023-02-26T12:38:06;0.70;99.90
9486;DHT22;4781;48.776;9.200;2023-02-26T12:43:46;0.70;99.90
9486;DHT22;4781;48.776;9.200;2023-02-26T12:46:27;0.80;99.90
9486;DHT22;4781;48.776;9.200;2023-02-26T12:55:09;1.10;99.90
9486;DHT22;4781;48.776;9.200;2023-02-26T12:58:06;1.20;99.90
9486;DHT22;4781;48.776;9.200;2023-02-26T13:09:34;1.30;99.90
9486;DHT22;4781;48.776;9.200;2023-02-26T13:15:23;1.40;99.90
9486;DHT22;4781;48.776;9.200;2023-02-26T13:18:16;1.40;99.90
9486;DHT22;4781;48.776;9.200;2023-02-26T13:21:05;1.40;99.90
9486;DHT22;4781;48.776;9.200;2023-02-26T13:26:18;1.30;99.90
9486;DHT22;4781;48.776;9.200;2023-02-26T13:29:01;1.30;99.90
9486;DHT22;4781;48.776;9.200;2023-02-26T13:31:46;1.30;99.90
9486;DHT22;4781;48.776;9.200;2023-02-26T13:37:33;1.30;99.90
9486;DHT22;4781;48.776;9.200;2023-02-26T13:46:20;1.40;99.90
9486;DHT22;4781;48.776;9.200;2023-02-26T13:52:27;1.40;99.90
9486;DHT22;4781;48.776;9.200;2023-02-26T13:54:53;1.50;99.90
9486;DHT22;4781;48.776;9.200;2023-02-26T13:57:47;1.60;99.90
9486;DHT22;4781;48.776;9.200;2023-02-26T14:00:33;1.70;99.90
9486;DHT22;4781;48.776;9.200;2023-02-26T14:06:06;1.80;99.90
9486;DHT22;4781;48.776;9.200;2023-02-26T14:08:45;1.80;99.90
9486;DHT22;4781;48.776;9.200;2023-02-26T14:11:41;1.80;99.90
9486;DHT22;4781;48.776;9.200;2023-02-26T14:14:31;1.80;99.90
9486;DHT22;4781;48.776;9.200;2023-02-26T14:17:19;1.90;99.90
9486;DHT22;4781;48.776;9.200;2023-02-26T14:27:42;1.90;99.90
9486;DHT22;4781;48.776;9.200;2023-02-26T14:30:32;2.00;99.90
9486;DHT22;4781;48.776;9.200;2023-02-26T14:35:34;2.10;99.90
9486;DHT22;4781;48.776;9.200;2023-02-26T14:41:17;2.00;99.90
9486;DHT22;4781;48.776;9.200;2023-02-26T14:46:43;2.00;99.90
9486;DHT22;4781;48.776;9.200;2023-02-26T14:57:52;2.00;99.90
9486;DHT22;4781;48.776;9.200;2023-02-26T15:00:31;2.20;99.90
9486;DHT22;4781;48.776;9.200;2023-02-26T15:06:39;2.50;99.90
9486;DHT22;4781;48.776;9.200;2023-02-26T15:09:51;2.60;99.90
9486;DHT22;4781;48.776;9.200;2023-02-26T15:12:51;2.60;99.90
9486;DHT22;4781;48.776;9.200;2023-02-26T15:15:34;2.50;99.90
9486;DHT22;4781;48.776;9.200;2023-02-26T15:18:14;2.30;99.90
9486;DHT22;4781;48.776;9.200;2023-02-26T15:21:04;2.20;99.90
9486;DHT22;4781;48.776;9.200;2023-02-26T15:23:44;2.00;99.90
9486;DHT22;4781;48.776;9.200;2023-02-26T15:26:28;2.00;99.90
9486;DHT22;4781;48.776;9.200;2023-02-26T15:29:01;1.90;99.90
9486;DHT22;4781;48.776;9.200;2023-02-26T15:31:33;1.90;99.90
9486;DHT22;4781;48.776;9.200;2023-02-26T15:34:03;1.90;99.90
9486;DHT22;4781;48.776;9.200;2023-02-26T15:36:32;1.80;99.90
9486;DHT22;4781;48.776;9.200;2023-02-26T15:39:01;1.80;99.90
9486;DHT22;4781;48.776;9.200;2023-02-26T15:41:32;1.80;99.90
9486;DHT22;4781;48.776;9.200;2023-02-26T15:44:12;1.80;99.90
9486;DHT22;4781;48.776;9.200;2023-02-26T15:46:39;1.80;99.90
9486;DHT22;4781;48.776;9.200;2023-02-26T15:49:59;1.80;99.90
9486;DHT22;4781;48.776;9.200;2023-02-26T15:51:54;1.80;99.90
9486;DHT22;4781;48.776;9.200;2023-02-26T15:54:29;1.80;99.90
9486;DHT22;4781;48.776;9.200;2023-02-26T15:57:01;1.80;99.90
9486;DHT22;4781;48.776;9.200;2023-02-26T15:59:32;1.80;99.90
9486;DHT22;4781;48.776;9.200;2023-02-26T16:02:03;1.80;99.90
9486;DHT22;4781;48.776;9.200;2023-02-26T16:04:34;1.80;99.90
9486;DHT22;4781;48.776;9.200;2023-02-26T16:07:03;1.80;99.90
9486;DHT22;4781;48.776;9.200;2023-02-26T16:09:37;1.70;99.90
9486;DHT22;4781;48.776;9.200;2023-02-26T16:12:16;1.60;99.90
9486;DHT22;4781;48.776;9.200;2023-02-26T16:14:55;1.50;99.90
9486;DHT22;4781;48.776;9.200;2023-02-26T16:17:27;1.50;99.90
9486;DHT22;4781;48.776;9.200;2023-02-26T16:20:07;1.40;99.90
9486;DHT22;4781;48.776;9.200;2023-02-26T16:22:40;1.40;99.90
9486;DHT22;4781;48.776;9.200;2023-02-26T16:28:05;1.30;99.90
9486;DHT22;4781;48.776;9.200;2023-02-26T16:30:41;1.20;99.90
9486;DHT22;4781;48.776;9.200;2023-02-26T16:33:13;1.20;99.90
9486;DHT22;4781;48.776;9.200;2023-02-26T16:35:52;1.20;99.90
9486;DHT22;4781;48.776;9.200;2023-02-26T16:38:58;1.20;99.90
9486;DHT22;4781;48.776;9.200;2023-02-26T16:41:20;1.20;99.90
9486;DHT22;4781;48.776;9.200;2023-02-26T16:43:52;1.10;99.90
9486;DHT22;4781;48.776;9.200;2023-02-26T16:49:23;1.10;99.90
9486;DHT22;4781;48.776;9.200;2023-02-26T16:51:55;1.10;99.90
9486;DHT22;4781;48.776;9.200;2023-02-26T16:54:32;1.00;99.90
9486;DHT22;4781;48.776;9.200;2023-02-26T16:57:19;1.00;99.90
9486;DHT22;4781;48.776;9.200;2023-02-26T16:59:48;1.00;99.90
9486;DHT22;4781;48.776;9.200;2023-02-26T17:02:22;1.00;99.90
9486;DHT22;4781;48.776;9.200;2023-02-26T17:04:57;1.00;99.90
9486;DHT22;4781;48.776;9.200;2023-02-26T17:07:29;1.00;99.90
9486;DHT22;4781;48.776;9.200;2023-02-26T17:10:07;1.00;99.90
9486;DHT22;4781;48.776;9.200;2023-02-26T17:12:47;1.00;99.90
9486;DHT22;4781;48.776;9.200;2023-02-26T17:15:31;1.00;99.90
9486;DHT22;4781;48.776;9.200;2023-02-26T17:18:02;1.00;99.90
9486;DHT22;4781;48.776;9.200;2023-02-26T17:20:31;0.90;99.90
9486;DHT22;4781;48.776;9.200;2023-02-26T17:23:02;0.90;99.90
9486;DHT22;4781;48.776;9.200;2023-02-26T17:25:40;0.90;99.90
9486;DHT22;4781;48.776;9.200;2023-02-26T17:28:16;0.90;99.90
9486;DHT22;4781;48.776;9.200;2023-02-26T17:30:45;0.90;99.90
9486;DHT22;4781;48.776;9.200;2023-02-26T17:33:14;0.80;99.90
9486;DHT22;4781;48.776;9.200;2023-02-26T17:35:44;0.80;99.90
9486;DHT22;4781;48.776;9.200;2023-02-26T17:38:14;0.80;99.90
9486;DHT22;4781;48.776;9.200;2023-02-26T17:40:44;0.80;99.90
9486;DHT22;4781;48.776;9.200;2023-02-26T17:43:17;0.70;99.90
9486;DHT22;4781;48.776;9.200;2023-02-26T17:45:46;0.70;99.90
9486;DHT22;4781;48.776;9.200;2023-02-26T17:48:15;0.70;99.90
9486;DHT22;4781;48.776;9.200;2023-02-26T17:50:46;0.70;99.90
9486;DHT22;4781;48.776;9.200;2023-02-26T17:53:17;0.70;99.90
9486;DHT22;4781;48.776;9.200;2023-02-26T17:55:49;0.70;99.90
9486;DHT22;4781;48.776;9.200;2023-02-26T17:58:27;0.60;99.90
9486;DHT22;4781;48.776;9.200;2023-02-26T18:01:00;0.60;99.90
9486;DHT22;4781;48.776;9.200;2023-02-26T18:03:30;0.50;99.90
9486;DHT22;4781;48.776;9.200;2023-02-26T18:05:58;0.50;99.90
9486;DHT22;4781;48.776;9.200;2023-02-26T18:08:32;0.50;99.90
9486;DHT22;4781;48.776;9.200;2023-02-26T18:11:01;0.50;99.90
9486;DHT22;4781;48.776;9.200;2023-02-26T18:13:30;0.50;99.90
9486;DHT22;4781;48.776;9.200;2023-02-26T18:15:59;0.40;99.90
9486;DHT22;4781;48.776;9.200;2023-02-26T18:18:29;0.40;99.90
9486;DHT22;4781;48.776;9.200;2023-02-26T18:20:58;0.30;99.90
9486;DHT22;4781;48.776;9.200;2023-02-26T18:23:27;0.30;99.90
9486;DHT22;4781;48.776;9.200;2023-02-26T18:25:56;0.20;99.90
9486;DHT22;4781;48.776;9.200;2023-02-26T18:28:26;0.20;99.90
9486;DHT22;4781;48.776;9.200;2023-02-26T18:30:55;0.20;99.90
9486;DHT22;4781;48.776;9.200;2023-02-26T18:33:24;0.20;99.90
9486;DHT22;4781;48.776;9.200;2023-02-26T18:35:54;0.20;99.90
9486;DHT22;4781;48.776;9.200;2023-02-26T18:38:26;0.10;99.90
9486;DHT22;4781;48.776;9.200;2023-02-26T18:40:55;0.10;99.90
9486;DHT22;4781;48.776;9.200;2023-02-26T18:43:23;0.10;99.90
9486;DHT22;4781;48.776;9.200;2023-02-26T18:45:52;0.10;99.90
9486;DHT22;4781;48.776;9.200;2023-02-26T18:48:22;0.10;99.90
9486;DHT22;4781;48.776;9.200;2023-02-26T18:50:51;0.10;99.90
9486;DHT22;4781;48.776;9.200;2023-02-26T18:53:21;0.10;99.90
9486;DHT22;4781;48.776;9.200;2023-02-26T18:55:52;0.00;99.90
9486;DHT22;4781;48.776;9.200;2023-02-26T18:58:22;0.00;99.90
9486;DHT22;4781;48.776;9.200;2023-02-26T19:00:51;0.00;99.90